createdAt,value
2023-05-24T00:02:14.158Z,94461.94
2023-05-24T00:04:42.058Z,94455.44
2023-05-24T00:07:09.011Z,94466.72
2023-05-24T00:09:35.741Z,94465.94
2023-05-24T00:12:02.813Z,94463.91
2023-05-24T00:14:29.516Z,94456.69
2023-05-24T00:16:56.251Z,94469.03
2023-05-24T00:19:23.084Z,94469.47
2023-05-24T00:21:50.146Z,94467.13
2023-05-24T00:24:17.629Z,94469.44
2023-05-24T00:26:45.108Z,94466.09
2023-05-24T00:29:11.970Z,94459.81
2023-05-24T00:31:39.210Z,94465.84
2023-05-24T00:34:06.612Z,94464.78
2023-05-24T00:36:34.087Z,94455.72
2023-05-24T00:39:00.920Z,94456.97
2023-05-24T00:41:27.680Z,94445.31
2023-05-24T00:43:54.765Z,94454.53
2023-05-24T00:46:27.264Z,94455.66
2023-05-24T00:48:54.924Z,94460.22
2023-05-24T00:51:22.420Z,94462.59
2023-05-24T00:53:49.819Z,94470.19
2023-05-24T00:56:17.458Z,94461.88
2023-05-24T00:58:45.441Z,94454.34
2023-05-24T01:01:13.022Z,94448.78
2023-05-24T01:03:40.223Z,94458.28
2023-05-24T01:06:08.459Z,94452.91
2023-05-24T01:08:50.474Z,94454.34
2023-05-24T01:11:52.346Z,94454.25
2023-05-24T01:14:44.961Z,94458.00
2023-05-24T01:17:33.270Z,94448.38
2023-05-24T01:20:08.912Z,94457.50
2023-05-24T01:22:43.806Z,94453.09
2023-05-24T01:25:37.272Z,94444.72
2023-05-24T01:28:04.437Z,94440.19
2023-05-24T01:30:31.425Z,94441.63
2023-05-24T01:32:58.469Z,94439.72
2023-05-24T01:35:25.240Z,94438.84
2023-05-24T01:37:51.964Z,94448.63
2023-05-24T01:40:18.948Z,94446.16
2023-05-24T01:43:14.737Z,94444.09
2023-05-24T01:46:02.615Z,94452.38
2023-05-24T01:49:00.669Z,94449.38
2023-05-24T01:51:38.892Z,94449.19
2023-05-24T01:54:06.924Z,94448.72
2023-05-24T01:56:35.942Z,94447.59
2023-05-24T01:59:04.316Z,94437.63
2023-05-24T02:01:32.014Z,94441.13
2023-05-24T02:03:59.811Z,94446.97
2023-05-24T02:06:26.552Z,94449.19
2023-05-24T02:08:53.664Z,94461.31
2023-05-24T02:11:21.433Z,94447.59
2023-05-24T02:13:48.112Z,94453.44
2023-05-24T02:16:14.875Z,94449.78
2023-05-24T02:18:44.866Z,94453.69
2023-05-24T02:21:12.046Z,94445.41
2023-05-24T02:23:38.787Z,94453.75
2023-05-24T02:26:05.742Z,94452.00
2023-05-24T02:28:32.579Z,94454.81
2023-05-24T02:30:59.485Z,94458.34
2023-05-24T02:33:26.404Z,94451.47
2023-05-24T02:35:53.092Z,94447.56
2023-05-24T02:38:19.779Z,94454.09
2023-05-24T02:40:46.438Z,94449.38
2023-05-24T02:43:13.301Z,94442.63
2023-05-24T02:45:40.060Z,94445.66
2023-05-24T02:48:06.941Z,94442.97
2023-05-24T02:50:34.046Z,94450.81
2023-05-24T02:53:00.814Z,94453.66
2023-05-24T02:55:29.186Z,94455.50
2023-05-24T02:57:56.446Z,94457.22
2023-05-24T03:00:24.922Z,94454.72
2023-05-24T03:02:53.372Z,94448.13
2023-05-24T03:05:20.493Z,94453.97
2023-05-24T03:07:47.388Z,94458.41
2023-05-24T03:10:16.162Z,94454.00
2023-05-24T03:12:43.300Z,94446.50
2023-05-24T03:15:10.609Z,94448.88
2023-05-24T03:17:37.347Z,94442.41
2023-05-24T03:20:05.926Z,94451.22
2023-05-24T03:22:32.972Z,94464.97
2023-05-24T03:24:59.731Z,94463.59
2023-05-24T03:27:26.512Z,94460.78
2023-05-24T03:29:54.417Z,94456.81
2023-05-24T03:32:24.447Z,94452.56
2023-05-24T03:34:51.173Z,94445.16
2023-05-24T03:37:17.887Z,94449.28
2023-05-24T03:39:45.455Z,94448.81
2023-05-24T03:42:44.336Z,94440.94
2023-05-24T03:45:12.257Z,94447.44
2023-05-24T03:47:38.981Z,94450.75
2023-05-24T03:50:06.341Z,94449.81
2023-05-24T03:52:33.045Z,94448.69
2023-05-24T03:54:59.775Z,94453.84
2023-05-24T03:57:26.578Z,94437.66
2023-05-24T03:59:53.265Z,94452.94
2023-05-24T04:02:20.059Z,94455.78
2023-05-24T04:04:46.953Z,94456.75
2023-05-24T04:07:15.469Z,94466.38
2023-05-24T04:09:43.193Z,94464.81
2023-05-24T04:12:09.929Z,94458.53
2023-05-24T04:14:36.604Z,94463.84
2023-05-24T04:17:05.850Z,94464.00
2023-05-24T04:19:32.780Z,94459.41
2023-05-24T04:21:59.805Z,94450.59
2023-05-24T04:24:26.636Z,94462.09
2023-05-24T04:26:53.373Z,94452.97
2023-05-24T04:29:20.290Z,94459.56
2023-05-24T04:31:49.164Z,94450.44
2023-05-24T04:34:16.025Z,94452.94
2023-05-24T04:36:42.947Z,94449.75
2023-05-24T04:39:11.570Z,94446.13
2023-05-24T04:41:38.731Z,94452.88
2023-05-24T04:44:05.531Z,94454.59
2023-05-24T04:46:32.213Z,94456.31
2023-05-24T04:48:59.179Z,94450.75
2023-05-24T04:51:26.157Z,94447.94
2023-05-24T04:53:52.841Z,94451.31
2023-05-24T04:56:19.994Z,94446.28
2023-05-24T04:58:47.701Z,94462.28
2023-05-24T05:01:14.485Z,94466.34
2023-05-24T05:03:41.509Z,94466.44
2023-05-24T05:06:08.331Z,94460.63
2023-05-24T05:08:35.001Z,94473.06
2023-05-24T05:11:01.682Z,94462.50
2023-05-24T05:13:28.453Z,94471.81
2023-05-24T05:15:55.223Z,94471.94
2023-05-24T05:18:21.943Z,94469.88
2023-05-24T05:20:49.043Z,94470.66
2023-05-24T05:23:15.972Z,94471.94
2023-05-24T05:25:42.665Z,94469.88
2023-05-24T05:28:09.341Z,94470.00
2023-05-24T05:30:36.036Z,94466.63
2023-05-24T05:33:05.962Z,94473.72
2023-05-24T05:35:33.384Z,94472.59
2023-05-24T05:38:00.044Z,94469.91
2023-05-24T05:40:26.776Z,94474.16
2023-05-24T05:42:53.545Z,94476.94
2023-05-24T05:45:20.365Z,94480.47
2023-05-24T05:47:47.135Z,94459.78
2023-05-24T05:50:13.864Z,94467.00
2023-05-24T05:52:41.084Z,94467.91
2023-05-24T05:55:08.742Z,94466.25
2023-05-24T05:57:35.588Z,94468.03
2023-05-24T06:00:02.536Z,94473.00
2023-05-24T06:02:38.694Z,94476.56
2023-05-24T06:05:05.961Z,94467.41
2023-05-24T06:07:32.901Z,94480.31
2023-05-24T06:09:59.732Z,94479.53
2023-05-24T06:12:26.793Z,94475.78
2023-05-24T06:14:54.273Z,94473.81
2023-05-24T06:17:24.339Z,94473.34
2023-05-24T06:19:53.799Z,94469.19
2023-05-24T06:22:21.689Z,94464.69
2023-05-24T06:24:49.233Z,94459.38
2023-05-24T06:27:16.099Z,94469.50
2023-05-24T06:29:42.762Z,94473.22
2023-05-24T06:32:09.535Z,94470.19
2023-05-24T06:34:36.279Z,94472.09
2023-05-24T06:37:03.211Z,94463.13
2023-05-24T06:39:29.996Z,94470.66
2023-05-24T06:41:56.698Z,94473.44
2023-05-24T06:44:31.020Z,94475.66
2023-05-24T06:46:57.997Z,94482.53
2023-05-24T06:49:24.685Z,94482.41
2023-05-24T06:51:54.723Z,94479.50
2023-05-24T06:54:21.786Z,94484.44
2023-05-24T06:56:48.466Z,94484.09
2023-05-24T06:59:15.140Z,94479.00
2023-05-24T07:01:43.045Z,94481.34
2023-05-24T07:04:10.125Z,94483.91
2023-05-24T07:06:37.718Z,94485.47
2023-05-24T07:09:04.986Z,94489.75
2023-05-24T07:11:32.185Z,94497.22
2023-05-24T07:13:58.908Z,94504.22
2023-05-24T07:16:25.670Z,94506.19
2023-05-24T07:18:52.473Z,94511.03
2023-05-24T07:21:19.218Z,94514.94
2023-05-24T07:23:46.143Z,94508.25
2023-05-24T07:26:12.910Z,94512.19
2023-05-24T07:28:40.550Z,94515.34
2023-05-24T07:31:09.968Z,94517.38
2023-05-24T07:33:37.954Z,94510.41
2023-05-24T07:36:06.036Z,94517.94
2023-05-24T07:38:34.216Z,94525.00
2023-05-24T07:41:02.113Z,94524.56
2023-05-24T07:43:28.773Z,94523.13
2023-05-24T07:45:55.776Z,94521.19
2023-05-24T07:48:23.481Z,94528.78
2023-05-24T07:50:52.645Z,94540.13
2023-05-24T07:53:19.876Z,94526.72
2023-05-24T07:55:46.862Z,94526.84
2023-05-24T07:58:13.540Z,94529.31
2023-05-24T08:00:41.482Z,94535.34
2023-05-24T08:03:08.336Z,94532.66
2023-05-24T08:05:35.114Z,94532.00
2023-05-24T08:08:01.774Z,94530.19
2023-05-24T08:10:28.844Z,94528.63
2023-05-24T08:12:56.220Z,94528.63
2023-05-24T08:15:23.089Z,94530.84
2023-05-24T08:17:49.795Z,94526.94
2023-05-24T08:20:17.851Z,94527.25
2023-05-24T08:22:44.752Z,94527.38
2023-05-24T08:25:14.237Z,94536.56
2023-05-24T08:27:41.266Z,94535.66
2023-05-24T08:30:08.880Z,94544.44
2023-05-24T08:32:36.398Z,94546.13
2023-05-24T08:35:17.464Z,94550.94
2023-05-24T08:37:46.236Z,94545.00
2023-05-24T08:40:13.082Z,94547.72
2023-05-24T08:42:41.087Z,94537.59
2023-05-24T08:45:15.436Z,94549.50
2023-05-24T08:47:42.687Z,94549.38
2023-05-24T08:50:10.364Z,94552.03
2023-05-24T08:52:37.099Z,94547.66
2023-05-24T08:55:07.573Z,94556.00
2023-05-24T08:57:39.307Z,94553.53
2023-05-24T09:00:09.552Z,94556.00
2023-05-24T09:02:38.679Z,94553.06
2023-05-24T09:05:09.348Z,94556.78
2023-05-24T09:07:37.361Z,94551.59
2023-05-24T09:10:06.892Z,94553.13
2023-05-24T09:12:38.708Z,94552.91
2023-05-24T09:15:07.597Z,94549.84
2023-05-24T09:17:39.152Z,94551.16
2023-05-24T09:20:08.976Z,94549.41
2023-05-24T09:22:40.642Z,94552.88
2023-05-24T09:25:10.095Z,94552.69
2023-05-24T09:27:37.655Z,94545.19
2023-05-24T09:30:09.206Z,94539.22
2023-05-24T09:32:36.175Z,94538.97
2023-05-24T09:35:02.891Z,94537.31
2023-05-24T09:37:32.775Z,94555.72
2023-05-24T09:40:00.046Z,94552.91
2023-05-24T09:42:28.882Z,94563.13
2023-05-24T09:45:08.745Z,94557.16
2023-05-24T09:47:37.508Z,94551.00
2023-05-24T09:50:06.942Z,94548.53
2023-05-24T09:52:37.949Z,94545.09
2023-05-24T09:55:18.843Z,94558.50
2023-05-24T09:57:51.259Z,94557.31
2023-05-24T10:00:23.247Z,94564.50
2023-05-24T10:03:07.450Z,94570.66
2023-05-24T10:05:35.931Z,94566.84
2023-05-24T10:08:05.132Z,94572.03
2023-05-24T10:10:33.514Z,94568.88
2023-05-24T10:13:01.646Z,94561.47
2023-05-24T10:15:29.030Z,94565.03
2023-05-24T10:17:57.027Z,94568.59
2023-05-24T10:20:24.765Z,94565.41
2023-05-24T10:23:04.193Z,94572.44
2023-05-24T10:25:33.732Z,94562.44
2023-05-24T10:28:10.352Z,94571.06
2023-05-24T10:30:42.421Z,94568.63
2023-05-24T10:33:13.120Z,94558.13
2023-05-24T10:35:41.375Z,94569.00
2023-05-24T10:38:08.569Z,94562.97
2023-05-24T10:40:40.891Z,94554.63
2023-05-24T10:43:08.175Z,94546.28
2023-05-24T10:45:41.086Z,94558.81
2023-05-24T10:48:14.034Z,94546.78
2023-05-24T10:50:42.615Z,94550.69
2023-05-24T10:53:13.727Z,94551.50
2023-05-24T10:55:57.384Z,94555.50
2023-05-24T10:58:55.303Z,94556.34
2023-05-24T11:01:31.107Z,94545.28
2023-05-24T11:04:11.213Z,94541.81
2023-05-24T11:06:55.671Z,94537.44
2023-05-24T11:09:23.127Z,94527.25
2023-05-24T11:11:54.553Z,94542.41
2023-05-24T11:14:29.148Z,94540.94
2023-05-24T11:16:56.825Z,94545.50
2023-05-24T11:19:29.522Z,94542.88
2023-05-24T11:22:00.652Z,94545.16
2023-05-24T11:24:29.004Z,94549.13
2023-05-24T11:26:57.141Z,94552.28
2023-05-24T11:29:24.160Z,94553.16
2023-05-24T11:31:57.786Z,94543.22
2023-05-24T11:34:26.682Z,94545.44
2023-05-24T11:36:55.183Z,94546.78
2023-05-24T11:39:23.579Z,94542.88
2023-05-24T11:41:50.446Z,94558.03
2023-05-24T11:44:19.659Z,94551.47
2023-05-24T11:46:46.688Z,94549.69
2023-05-24T11:49:17.317Z,94542.97
2023-05-24T11:51:44.206Z,94547.34
2023-05-24T11:54:11.855Z,94551.94
2023-05-24T11:56:38.858Z,94552.84
2023-05-24T11:59:27.108Z,94544.97
2023-05-24T12:02:06.771Z,94549.69
2023-05-24T12:04:34.766Z,94555.38
2023-05-24T12:07:02.409Z,94551.78
2023-05-24T12:09:29.394Z,94551.13
2023-05-24T12:11:57.713Z,94557.50
2023-05-24T12:14:27.026Z,94561.91
2023-05-24T12:16:56.325Z,94544.72
2023-05-24T12:19:33.134Z,94555.19
2023-05-24T12:22:05.111Z,94552.16
2023-05-24T12:24:32.955Z,94545.44
2023-05-24T12:27:07.603Z,94556.16
2023-05-24T12:29:36.735Z,94546.63
2023-05-24T12:32:04.293Z,94557.44
2023-05-24T12:34:31.060Z,94545.81
2023-05-24T12:36:57.915Z,94544.22
2023-05-24T12:39:34.321Z,94551.19
2023-05-24T12:42:02.240Z,94551.72
2023-05-24T12:44:35.805Z,94550.94
2023-05-24T12:47:05.487Z,94537.47
2023-05-24T12:49:32.352Z,94537.28
2023-05-24T12:51:59.220Z,94549.81
2023-05-24T12:54:28.430Z,94547.25
2023-05-24T12:56:57.522Z,94542.66
2023-05-24T12:59:25.680Z,94547.13
2023-05-24T13:01:52.929Z,94553.06
2023-05-24T13:04:22.245Z,94546.84
2023-05-24T13:06:49.169Z,94552.72
2023-05-24T13:09:18.886Z,94547.94
2023-05-24T13:11:45.690Z,94549.69
2023-05-24T13:14:12.879Z,94540.28
2023-05-24T13:16:39.786Z,94543.91
2023-05-24T13:19:06.772Z,94541.16
2023-05-24T13:21:33.809Z,94538.25
2023-05-24T13:24:00.748Z,94533.47
2023-05-24T13:26:27.799Z,94536.28
2023-05-24T13:29:26.531Z,94528.53
2023-05-24T13:31:41.867Z,94537.63
2023-05-24T13:34:11.184Z,94533.72
2023-05-24T13:36:38.811Z,94525.56
2023-05-24T13:41:37.788Z,94529.41
2023-05-24T13:44:04.601Z,94527.16
2023-05-24T13:46:32.290Z,94524.03
2023-05-24T13:48:59.331Z,94525.16
2023-05-24T13:51:27.085Z,94519.03
2023-05-24T13:53:55.553Z,94516.72
2023-05-24T13:56:24.276Z,94507.25
2023-05-24T13:58:52.354Z,94508.91
2023-05-24T14:01:19.573Z,94509.56
2023-05-24T14:03:46.586Z,94513.56
2023-05-24T14:06:13.415Z,94509.53
2023-05-24T14:08:40.294Z,94508.13
2023-05-24T14:11:07.215Z,94498.91
2023-05-24T14:16:03.756Z,94515.91
2023-05-24T14:18:30.545Z,94503.09
2023-05-24T14:20:57.254Z,94502.88
2023-05-24T14:23:23.988Z,94498.38
2023-05-24T14:25:52.087Z,94497.03
2023-05-24T14:28:19.841Z,94496.34
2023-05-24T14:30:46.538Z,94487.88
2023-05-24T14:33:13.665Z,94489.94
2023-05-24T14:35:40.884Z,94495.56
2023-05-24T14:38:09.514Z,94512.56
2023-05-24T14:40:37.814Z,94510.13
2023-05-24T14:43:05.532Z,94490.72
2023-05-24T14:45:33.243Z,94500.94
2023-05-24T14:48:01.030Z,94480.72
2023-05-24T14:50:27.814Z,94488.09
2023-05-24T14:52:55.837Z,94499.94
2023-05-24T14:55:22.818Z,94482.25
2023-05-24T14:57:49.698Z,94486.38
2023-05-24T15:00:18.578Z,94484.72
2023-05-24T15:02:46.708Z,94491.25
2023-05-24T15:05:13.559Z,94490.22
2023-05-24T15:07:40.241Z,94483.69
2023-05-24T15:10:07.790Z,94485.44
2023-05-24T15:12:34.472Z,94491.19
2023-05-24T15:15:01.394Z,94491.59
2023-05-24T15:17:28.281Z,94495.44
2023-05-24T15:19:56.649Z,94494.13
2023-05-24T15:22:23.496Z,94483.06
2023-05-24T15:24:50.421Z,94486.47
2023-05-24T15:27:17.371Z,94482.28
2023-05-24T15:29:44.037Z,94478.38
2023-05-24T15:32:10.750Z,94471.31
2023-05-24T15:34:37.442Z,94484.13
2023-05-24T15:37:04.204Z,94488.88
2023-05-24T15:39:30.976Z,94484.47
2023-05-24T15:41:57.876Z,94473.38
2023-05-24T15:44:24.683Z,94475.84
2023-05-24T15:46:51.466Z,94477.03
2023-05-24T15:49:18.178Z,94467.75
2023-05-24T15:54:14.573Z,94480.28
2023-05-24T15:56:41.237Z,94486.72
2023-05-24T15:59:08.250Z,94474.53
2023-05-24T16:01:35.236Z,94470.94
2023-05-24T16:04:02.114Z,94474.94
2023-05-24T16:06:28.846Z,94477.28
2023-05-24T16:08:55.663Z,94482.13
2023-05-24T16:11:23.668Z,94476.44
2023-05-24T16:13:50.554Z,94481.03
2023-05-24T16:16:17.328Z,94477.06
2023-05-24T16:18:44.080Z,94469.19
2023-05-24T16:21:10.913Z,94470.56
2023-05-24T16:23:37.592Z,94469.66
2023-05-24T16:26:04.305Z,94472.88
2023-05-24T16:28:31.080Z,94471.41
2023-05-24T16:30:58.808Z,94469.78
2023-05-24T16:33:25.692Z,94467.47
2023-05-24T16:35:55.815Z,94469.56
2023-05-24T16:38:23.907Z,94464.50
2023-05-24T16:40:51.346Z,94472.81
2023-05-24T16:43:18.553Z,94476.44
2023-05-24T16:45:45.782Z,94467.56
2023-05-24T16:48:13.158Z,94471.38
2023-05-24T16:50:40.277Z,94462.91
2023-05-24T16:53:07.088Z,94468.09
2023-05-24T16:55:33.768Z,94455.38
2023-05-24T16:58:00.560Z,94456.03
2023-05-24T17:00:27.416Z,94464.88
2023-05-24T17:02:54.742Z,94460.53
2023-05-24T17:05:21.558Z,94448.38
2023-05-24T17:07:48.243Z,94460.59
2023-05-24T17:10:14.981Z,94462.66
2023-05-24T17:12:41.706Z,94460.75
2023-05-24T17:15:08.965Z,94457.63
2023-05-24T17:17:35.708Z,94452.75
2023-05-24T17:20:02.559Z,94454.47
2023-05-24T17:22:29.390Z,94456.06
2023-05-24T17:24:56.044Z,94470.25
2023-05-24T17:27:22.861Z,94459.91
2023-05-24T17:29:49.780Z,94474.78
2023-05-24T17:32:16.542Z,94477.84
2023-05-24T17:34:43.295Z,94462.88
2023-05-24T17:37:09.996Z,94460.06
2023-05-24T17:39:36.959Z,94467.38
2023-05-24T17:42:03.873Z,94469.94
2023-05-24T17:44:31.385Z,94476.47
2023-05-24T17:46:59.683Z,94477.94
2023-05-24T17:49:26.552Z,94478.28
2023-05-24T17:51:53.318Z,94484.00
2023-05-24T17:54:20.125Z,94471.91
2023-05-24T17:56:46.831Z,94478.00
2023-05-24T17:59:13.539Z,94480.53
2023-05-24T18:01:40.372Z,94479.22
2023-05-24T18:04:08.504Z,94484.59
2023-05-24T18:06:35.548Z,94487.22
2023-05-24T18:09:02.280Z,94496.97
2023-05-24T18:11:29.276Z,94491.72
2023-05-24T18:13:57.088Z,94494.50
2023-05-24T18:16:23.878Z,94490.22
2023-05-24T18:18:50.608Z,94506.16
2023-05-24T18:21:18.411Z,94495.97
2023-05-24T18:23:45.084Z,94495.66
2023-05-24T18:26:12.178Z,94511.41
2023-05-24T18:28:39.251Z,94506.75
2023-05-24T18:31:08.706Z,94508.53
2023-05-24T18:33:35.823Z,94510.81
2023-05-24T18:36:04.514Z,94520.00
2023-05-24T18:38:33.864Z,94506.34
2023-05-24T18:41:00.953Z,94525.50
2023-05-24T18:43:27.593Z,94518.16
2023-05-24T18:45:54.309Z,94511.34
2023-05-24T18:48:21.341Z,94537.00
2023-05-24T18:50:49.956Z,94527.94
2023-05-24T18:53:16.665Z,94525.72
2023-05-24T18:55:43.729Z,94529.88
2023-05-24T18:58:10.565Z,94528.84
2023-05-24T19:00:37.278Z,94536.91
2023-05-24T19:03:04.002Z,94528.59
2023-05-24T19:05:30.889Z,94528.69
2023-05-24T19:07:57.617Z,94537.88
2023-05-24T19:10:24.291Z,94540.44
2023-05-24T19:12:51.572Z,94550.97
2023-05-24T19:15:18.380Z,94547.00
2023-05-24T19:17:45.084Z,94534.09
2023-05-24T19:20:12.178Z,94537.22
2023-05-24T19:22:38.899Z,94539.34
2023-05-24T19:25:06.081Z,94534.97
2023-05-24T19:27:32.789Z,94534.19
2023-05-24T19:30:00.172Z,94545.25
2023-05-24T19:32:27.053Z,94547.22
2023-05-24T19:34:53.824Z,94543.84
2023-05-24T19:37:21.047Z,94543.41
2023-05-24T19:39:47.897Z,94550.16
2023-05-24T19:42:14.865Z,94552.38
2023-05-24T19:44:41.680Z,94545.44
2023-05-24T19:47:08.405Z,94553.03
2023-05-24T19:49:35.162Z,94548.31
2023-05-24T19:52:01.845Z,94552.31
2023-05-24T19:54:28.512Z,94553.84
2023-05-24T19:56:56.076Z,94556.84
2023-05-24T19:59:22.732Z,94558.28
2023-05-24T20:01:49.517Z,94561.94
2023-05-24T20:04:16.298Z,94560.25
2023-05-24T20:06:43.030Z,94555.28
2023-05-24T20:09:09.733Z,94559.06
2023-05-24T20:11:36.402Z,94558.31
2023-05-24T20:14:03.147Z,94545.16
2023-05-24T20:16:30.008Z,94563.34
2023-05-24T20:18:56.794Z,94562.56
2023-05-24T20:21:23.545Z,94563.19
2023-05-24T20:23:57.258Z,94561.03
2023-05-24T20:26:24.681Z,94565.47
2023-05-24T20:28:52.142Z,94570.22
2023-05-24T20:31:18.957Z,94570.72
2023-05-24T20:33:45.887Z,94572.63
2023-05-24T20:36:14.830Z,94570.63
2023-05-24T20:38:41.665Z,94567.25
2023-05-24T20:41:08.336Z,94568.88
2023-05-24T20:43:35.173Z,94572.53
2023-05-24T20:46:02.103Z,94569.22
2023-05-24T20:48:28.878Z,94576.31
2023-05-24T20:50:55.530Z,94574.91
2023-05-24T20:53:22.256Z,94567.31
2023-05-24T20:55:49.112Z,94567.47
2023-05-24T20:58:17.564Z,94562.09
2023-05-24T21:00:44.347Z,94563.34
2023-05-24T21:03:11.354Z,94558.09
2023-05-24T21:05:40.302Z,94559.88
2023-05-24T21:08:07.293Z,94560.53
2023-05-24T21:10:34.093Z,94545.41
2023-05-24T21:13:00.781Z,94566.53
2023-05-24T21:15:27.474Z,94560.06
2023-05-24T21:17:54.211Z,94568.44
2023-05-24T21:20:21.553Z,94563.69
2023-05-24T21:22:48.783Z,94564.19
2023-05-24T21:25:15.605Z,94562.47
2023-05-24T21:27:42.284Z,94562.63
2023-05-24T21:30:09.317Z,94558.53
2023-05-24T21:32:36.081Z,94563.44
2023-05-24T21:35:02.772Z,94553.66
2023-05-24T21:37:29.522Z,94567.06
2023-05-24T21:39:56.320Z,94563.41
2023-05-24T21:42:22.995Z,94560.91
2023-05-24T21:44:49.630Z,94568.47
2023-05-24T21:47:16.362Z,94573.81
2023-05-24T21:49:43.072Z,94571.94
2023-05-24T21:52:09.769Z,94570.50
2023-05-24T21:54:36.426Z,94575.09
2023-05-24T21:57:03.788Z,94578.25
2023-05-24T21:59:30.502Z,94581.25
2023-05-24T22:01:57.262Z,94580.59
2023-05-24T22:04:23.981Z,94583.13
2023-05-24T22:06:50.841Z,94581.25
2023-05-24T22:09:17.617Z,94586.13
2023-05-24T22:11:44.303Z,94586.91
2023-05-24T22:14:11.045Z,94584.56
2023-05-24T22:16:38.029Z,94579.03
2023-05-24T22:19:11.608Z,94580.94
2023-05-24T22:21:41.759Z,94576.22
2023-05-24T22:24:12.571Z,94577.31
2023-05-24T22:26:41.696Z,94577.63
2023-05-24T22:29:08.525Z,94574.16
2023-05-24T22:31:36.215Z,94569.31
2023-05-24T22:34:03.168Z,94578.47
2023-05-24T22:36:34.507Z,94575.31
2023-05-24T22:39:01.724Z,94569.19
2023-05-24T22:41:28.814Z,94575.97
2023-05-24T22:43:57.139Z,94569.19
2023-05-24T22:46:24.695Z,94572.81
2023-05-24T22:48:56.758Z,94573.75
2023-05-24T22:51:24.002Z,94572.53
2023-05-24T22:53:52.689Z,94578.50
2023-05-24T22:56:19.730Z,94586.88
2023-05-24T22:58:46.438Z,94583.88
2023-05-24T23:01:15.649Z,94588.13
2023-05-24T23:03:42.504Z,94579.16
2023-05-24T23:06:12.150Z,94583.13
2023-05-24T23:08:39.151Z,94585.78
2023-05-24T23:11:10.418Z,94580.28
2023-05-24T23:13:37.819Z,94587.19
2023-05-24T23:16:05.591Z,94582.78
2023-05-24T23:18:33.079Z,94581.06
2023-05-24T23:21:03.183Z,94583.91
2023-05-24T23:23:30.256Z,94582.97
2023-05-24T23:25:57.167Z,94581.53
2023-05-24T23:28:24.433Z,94582.78
2023-05-24T23:30:51.860Z,94586.88
2023-05-24T23:33:18.561Z,94573.34
2023-05-24T23:35:45.501Z,94579.50
2023-05-24T23:38:13.751Z,94584.53
2023-05-24T23:40:40.705Z,94578.22
2023-05-24T23:43:08.050Z,94578.38
2023-05-24T23:45:35.148Z,94577.13
2023-05-24T23:48:02.224Z,94573.00
2023-05-24T23:50:30.302Z,94562.94
2023-05-24T23:52:59.725Z,94569.41
2023-05-24T23:55:26.486Z,94572.22
2023-05-24T23:57:53.878Z,94561.84
